Kekaha, Hawaii
Current Conditions -  °F | °C
As of 4:56 AM on Friday 28 Nov 2014 (Local Time) from PHBK Reporting Station
Broken Clouds Broken Clouds  
Wind Chill: 69°   Ceiling: 4700
Heat Index: 69°   Visibility: 10mi
Dew Point: 61°   Wind: 7mph
Humidity: 75%   Direction: 50°NE
Pressure: 30.04"   Gusts: NA
Location:  21.97°N, 159.69°W
Report Text: PHBK 281456Z AUTO 05006KT 10SM BKN047 BKN055 21/16 A3004 RMK AO2 SLP173 T02060161 56005
Loading
Personal Weather Stations






























Interactive Weather Map New forecast layout! Learn more

10-Day Weather Forecast

Advertisements
Track Severe Weather on mobile